Time;durP1;ratioP1;P1;durP2;ratioP2;P2;SDS_P1;SDS_P2;PMS_P1;PMS_P2;Temp;Humidity;BMP_temperature;BMP_pressure;BME280_temperature;BME280_humidity;BME280_pressure;Samples;Min_cycle;Max_cycle;Signal;HPM_P1;HPM_P2
2023/05/09 00:01:42;;;;;;;29.23;26.92;;;12.90;99.90;;;;;;4999831;28;20037;-76
2023/05/09 00:04:10;;;;;;;28.33;26.13;;;12.80;99.90;;;;;;4987142;28;20077;-77
2023/05/09 00:06:36;;;;;;;28.75;26.35;;;12.80;99.90;;;;;;4979629;28;20042;-76
2023/05/09 00:09:04;;;;;;;27.23;24.92;;;12.70;99.90;;;;;;5001871;28;20054;-77
2023/05/09 00:11:30;;;;;;;27.92;25.67;;;12.70;99.90;;;;;;4999384;28;20045;-76
2023/05/09 00:13:57;;;;;;;28.67;26.38;;;12.80;99.90;;;;;;4998464;28;20142;-77
2023/05/09 00:16:24;;;;;;;26.98;25.02;;;12.80;99.90;;;;;;5011301;28;20059;-77
2023/05/09 00:18:51;;;;;;;27.13;25.02;;;12.80;99.90;;;;;;5015120;28;20069;-77
2023/05/09 00:21:18;;;;;;;27.80;25.52;;;12.80;99.90;;;;;;4997333;28;20133;-76
2023/05/09 00:23:46;;;;;;;28.38;26.17;;;12.80;99.90;;;;;;4994323;28;20091;-75
2023/05/09 00:26:14;;;;;;;27.52;25.35;;;12.90;99.90;;;;;;5018153;28;20129;-76
2023/05/09 00:28:42;;;;;;;27.77;25.75;;;12.90;99.90;;;;;;5020499;28;20046;-78
2023/05/09 00:31:09;;;;;;;28.08;25.75;;;12.90;99.90;;;;;;4997601;28;20594;-76
2023/05/09 00:33:36;;;;;;;27.63;25.42;;;13.00;99.90;;;;;;4998247;28;20041;-77
2023/05/09 00:36:02;;;;;;;27.60;25.60;;;12.90;99.90;;;;;;5002659;28;20665;-76
2023/05/09 00:38:29;;;;;;;29.02;26.33;;;12.80;99.90;;;;;;4998944;28;20047;-76
2023/05/09 00:40:56;;;;;;;26.50;24.60;;;12.90;99.90;;;;;;5005768;28;20038;-78
2023/05/09 00:43:23;;;;;;;26.05;24.17;;;12.90;99.90;;;;;;5015170;28;20407;-78
2023/05/09 00:45:50;;;;;;;27.08;24.90;;;12.80;99.90;;;;;;4998589;28;20069;-76
2023/05/09 00:48:17;;;;;;;27.13;25.17;;;12.70;99.90;;;;;;5001585;28;20168;-77
2023/05/09 00:50:45;;;;;;;27.15;25.15;;;12.70;99.90;;;;;;5000300;28;20499;-76
2023/05/09 00:53:12;;;;;;;27.30;25.08;;;12.70;99.90;;;;;;5030238;28;20058;-76
2023/05/09 00:55:39;;;;;;;27.05;25.05;;;12.60;99.90;;;;;;5001556;28;20123;-77
2023/05/09 00:58:06;;;;;;;25.33;23.40;;;12.60;99.90;;;;;;4985397;28;20037;-76
2023/05/09 01:00:32;;;;;;;25.45;23.42;;;12.60;99.90;;;;;;4998122;28;20128;-77
2023/05/09 01:03:00;;;;;;;25.25;22.65;;;12.70;99.90;;;;;;4994716;28;20038;-76
2023/05/09 01:05:49;;;;;;;24.70;22.83;;;12.70;99.90;;;;;;4997438;28;20091;-78
2023/05/09 01:08:39;;;;;;;24.85;23.15;;;12.70;99.90;;;;;;5016861;28;20705;-76
2023/05/09 01:11:11;;;;;;;25.63;23.85;;;12.70;99.90;;;;;;5014168;28;20041;-76
2023/05/09 01:14:18;;;;;;;25.42;23.63;;;12.80;99.90;;;;;;4998257;28;20049;-76
2023/05/09 01:17:08;;;;;;;24.33;22.58;;;12.80;99.90;;;;;;5033008;28;20565;-77
2023/05/09 01:20:13;;;;;;;25.05;23.25;;;12.90;99.90;;;;;;5001765;28;20041;-77
2023/05/09 01:22:47;;;;;;;23.35;21.77;;;12.80;99.90;;;;;;5029448;28;20531;-74
2023/05/09 01:25:36;;;;;;;24.02;22.17;;;12.80;99.90;;;;;;5018299;28;20075;-75
2023/05/09 01:28:08;;;;;;;24.10;22.00;;;12.70;99.90;;;;;;5028956;28;20046;-77
2023/05/09 01:30:36;;;;;;;23.85;22.25;;;12.80;99.90;;;;;;5001323;28;20415;-76
2023/05/09 01:33:06;;;;;;;23.33;21.75;;;12.80;99.90;;;;;;4986057;28;20510;-77
2023/05/09 01:35:36;;;;;;;24.48;22.55;;;12.80;99.90;;;;;;4999576;28;20064;-76
2023/05/09 01:38:09;;;;;;;23.95;22.25;;;12.70;99.90;;;;;;5012519;28;20052;-77
2023/05/09 01:40:38;;;;;;;24.48;22.35;;;12.70;99.90;;;;;;5028277;28;20121;-76
2023/05/09 01:43:08;;;;;;;24.60;22.80;;;12.80;99.90;;;;;;5000879;28;20090;-77
2023/05/09 01:45:38;;;;;;;24.92;23.05;;;12.70;99.90;;;;;;4997134;28;20100;-76
2023/05/09 01:48:07;;;;;;;24.73;22.98;;;12.80;99.90;;;;;;5002993;28;20061;-77
2023/05/09 01:50:36;;;;;;;25.40;23.45;;;12.80;99.90;;;;;;4999410;28;20065;-75
2023/05/09 01:53:05;;;;;;;25.25;23.45;;;12.70;99.90;;;;;;5002812;28;20056;-77
2023/05/09 01:55:34;;;;;;;25.17;23.15;;;12.70;99.90;;;;;;4998996;28;20053;-76
2023/05/09 01:58:04;;;;;;;25.48;23.48;;;12.60;99.90;;;;;;4997183;28;20049;-77
2023/05/09 02:00:33;;;;;;;25.05;23.05;;;12.70;99.90;;;;;;5009237;28;20045;-76
2023/05/09 02:03:01;;;;;;;24.38;22.60;;;12.60;99.90;;;;;;5010825;28;20080;-76
2023/05/09 02:05:30;;;;;;;24.70;22.90;;;12.60;99.90;;;;;;5014755;28;20042;-77
2023/05/09 02:07:58;;;;;;;24.80;22.60;;;12.60;99.90;;;;;;5010684;28;20092;-76
2023/05/09 02:10:27;;;;;;;24.60;22.80;;;12.60;99.90;;;;;;4982558;28;20038;-76
2023/05/09 02:12:55;;;;;;;24.15;22.48;;;12.50;99.90;;;;;;4983866;28;20084;-76
2023/05/09 02:15:22;;;;;;;25.85;23.85;;;12.50;99.90;;;;;;5009114;28;20111;-76
2023/05/09 02:17:49;;;;;;;24.88;23.05;;;12.50;99.90;;;;;;4986204;28;22708;-76
2023/05/09 02:20:16;;;;;;;24.63;22.85;;;12.50;99.90;;;;;;4996587;28;20050;-76
2023/05/09 02:22:43;;;;;;;24.33;22.52;;;12.50;99.90;;;;;;4996046;28;20048;-76
2023/05/09 02:25:13;;;;;;;25.15;23.25;;;12.40;99.90;;;;;;5000256;28;20046;-76
2023/05/09 02:27:43;;;;;;;24.02;22.42;;;12.30;99.90;;;;;;5000910;28;20128;-76
2023/05/09 02:30:14;;;;;;;24.40;22.52;;;12.20;99.90;;;;;;5000203;28;20483;-76
2023/05/09 02:32:44;;;;;;;24.98;22.80;;;12.20;99.90;;;;;;4999207;28;20069;-76
2023/05/09 02:35:13;;;;;;;25.60;23.48;;;12.20;99.90;;;;;;4998886;28;20045;-76
2023/05/09 02:37:41;;;;;;;25.50;23.70;;;12.20;99.90;;;;;;5000146;28;20069;-76
2023/05/09 02:40:08;;;;;;;24.98;23.10;;;12.10;99.90;;;;;;5022151;28;20044;-76
2023/05/09 02:42:35;;;;;;;26.48;24.48;;;12.20;99.90;;;;;;4999220;28;20040;-76
2023/05/09 02:45:02;;;;;;;24.25;22.52;;;12.10;99.90;;;;;;4996624;28;20550;-77
2023/05/09 02:47:28;;;;;;;25.95;24.00;;;12.10;99.90;;;;;;5003847;28;20044;-76
2023/05/09 02:49:57;;;;;;;25.17;23.38;;;12.10;99.90;;;;;;4994386;28;20041;-76
2023/05/09 02:52:24;;;;;;;26.10;23.85;;;12.10;99.90;;;;;;5017138;28;20049;-76
2023/05/09 02:54:51;;;;;;;25.95;23.95;;;12.10;99.90;;;;;;5013986;28;21726;-76
2023/05/09 02:57:17;;;;;;;25.65;23.73;;;12.00;99.90;;;;;;5008200;28;20560;-77
2023/05/09 02:59:44;;;;;;;25.55;23.65;;;12.00;99.90;;;;;;4987508;28;20485;-76
2023/05/09 03:02:11;;;;;;;25.73;23.73;;;12.00;99.90;;;;;;4996200;28;20045;-76
2023/05/09 03:04:38;;;;;;;26.05;23.95;;;11.90;99.90;;;;;;5002431;28;20562;-76
2023/05/09 03:07:04;;;;;;;26.63;24.42;;;11.90;99.90;;;;;;4999092;28;20037;-77
2023/05/09 03:09:32;;;;;;;26.40;24.40;;;11.80;99.90;;;;;;4998944;28;20034;-77
2023/05/09 03:11:59;;;;;;;28.77;26.30;;;11.90;99.90;;;;;;4999957;28;20038;-76
2023/05/09 03:14:26;;;;;;;27.58;25.40;;;11.90;99.90;;;;;;4999680;28;20049;-76
2023/05/09 03:16:53;;;;;;;27.67;25.25;;;12.00;99.90;;;;;;4999048;28;20049;-76
2023/05/09 03:19:25;;;;;;;28.58;25.50;;;12.00;99.90;;;;;;4998732;28;20099;-77
2023/05/09 03:21:51;;;;;;;27.20;24.88;;;12.00;99.90;;;;;;5002347;28;20569;-76
2023/05/09 03:24:19;;;;;;;27.33;25.13;;;11.90;99.90;;;;;;4994477;28;20428;-76
2023/05/09 03:26:46;;;;;;;29.75;27.65;;;11.90;99.90;;;;;;4998399;28;20727;-77
2023/05/09 03:29:13;;;;;;;26.20;23.98;;;11.80;99.90;;;;;;4982652;28;20430;-76
2023/05/09 03:31:39;;;;;;;26.92;24.83;;;11.70;99.90;;;;;;4997586;28;20041;-77
2023/05/09 03:34:11;;;;;;;26.98;24.75;;;11.60;99.90;;;;;;4998995;28;20053;-77
2023/05/09 03:36:38;;;;;;;26.90;24.80;;;11.60;99.90;;;;;;5009490;28;20716;-76
2023/05/09 03:39:05;;;;;;;25.73;23.83;;;11.50;99.90;;;;;;4996386;28;20048;-76
2023/05/09 03:41:31;;;;;;;26.30;24.23;;;11.50;99.90;;;;;;5016561;28;20053;-76
2023/05/09 03:43:59;;;;;;;27.48;25.00;;;11.50;99.90;;;;;;4999600;28;20435;-77
2023/05/09 03:46:25;;;;;;;26.25;24.38;;;11.50;99.90;;;;;;4997300;28;20048;-76
2023/05/09 03:48:52;;;;;;;27.38;25.20;;;11.50;99.90;;;;;;4982673;28;20124;-77
2023/05/09 03:51:19;;;;;;;27.23;24.98;;;11.60;99.90;;;;;;5011669;28;20050;-77
2023/05/09 03:53:48;;;;;;;27.23;25.10;;;11.50;99.90;;;;;;4982707;28;20596;-76
2023/05/09 03:56:15;;;;;;;26.92;24.83;;;11.50;99.90;;;;;;4997066;28;20050;-76
2023/05/09 03:58:48;;;;;;;30.27;27.90;;;11.50;99.90;;;;;;4996212;28;20053;-77
2023/05/09 04:01:15;;;;;;;29.95;27.70;;;11.50;99.90;;;;;;5007133;28;20045;-77
2023/05/09 04:03:42;;;;;;;31.42;28.40;;;11.50;99.90;;;;;;4998486;28;20107;-76
2023/05/09 04:06:11;;;;;;;30.13;27.83;;;11.50;99.90;;;;;;5001861;28;20088;-76
2023/05/09 04:08:41;;;;;;;30.98;28.50;;;11.60;99.90;;;;;;5000035;28;20064;-76
2023/05/09 04:11:08;;;;;;;31.23;28.80;;;11.50;99.90;;;;;;4999166;28;20053;-76
2023/05/09 04:13:37;;;;;;;29.10;27.00;;;11.50;99.90;;;;;;4997333;28;20049;-76
2023/05/09 04:16:12;;;;;;;29.35;27.08;;;11.50;99.90;;;;;;4985668;28;20096;-76
2023/05/09 04:18:41;;;;;;;29.45;27.05;;;11.40;99.90;;;;;;5012873;28;20716;-75
2023/05/09 04:21:08;;;;;;;29.60;27.23;;;11.50;99.90;;;;;;4991292;28;20037;-76
2023/05/09 04:23:35;;;;;;;29.85;27.55;;;11.50;99.90;;;;;;4998243;28;20048;-76
2023/05/09 04:26:02;;;;;;;31.13;28.52;;;11.60;99.90;;;;;;5001269;28;20064;-76
2023/05/09 04:28:29;;;;;;;30.35;27.80;;;11.50;99.90;;;;;;4989369;28;20148;-76
2023/05/09 04:30:56;;;;;;;30.65;28.25;;;11.60;99.90;;;;;;5001012;28;20041;-75
2023/05/09 04:33:23;;;;;;;30.52;28.15;;;11.70;99.90;;;;;;5001531;28;20129;-76
2023/05/09 04:35:51;;;;;;;29.33;27.20;;;11.80;99.90;;;;;;5000859;28;20048;-76
2023/05/09 04:38:18;;;;;;;31.40;28.85;;;11.90;99.90;;;;;;5022147;28;20801;-77
2023/05/09 04:40:46;;;;;;;29.45;27.35;;;12.00;99.90;;;;;;5001002;28;20052;-75
2023/05/09 04:43:12;;;;;;;29.90;27.70;;;11.90;99.90;;;;;;5006544;28;20049;-77
2023/05/09 04:45:39;;;;;;;30.00;27.73;;;11.90;99.90;;;;;;5016376;28;20053;-77
2023/05/09 04:48:06;;;;;;;31.65;28.85;;;12.10;99.90;;;;;;4990528;28;20045;-76
2023/05/09 04:50:33;;;;;;;30.90;28.50;;;12.20;99.90;;;;;;5004799;28;20056;-75
2023/05/09 04:53:02;;;;;;;29.65;27.52;;;12.30;99.90;;;;;;5006585;28;20053;-75
2023/05/09 04:55:29;;;;;;;30.55;28.20;;;12.40;99.90;;;;;;5000502;28;20411;-75
2023/05/09 04:57:55;;;;;;;30.58;28.48;;;12.50;99.90;;;;;;5002931;28;20054;-77
2023/05/09 05:00:22;;;;;;;29.85;27.83;;;12.50;99.90;;;;;;4999687;28;20077;-76
2023/05/09 05:02:50;;;;;;;32.42;29.83;;;12.60;99.90;;;;;;4991581;28;20088;-76
2023/05/09 05:05:16;;;;;;;32.05;29.65;;;12.60;99.90;;;;;;4979575;28;20053;-77
2023/05/09 05:07:47;;;;;;;32.05;29.50;;;12.70;99.90;;;;;;5018807;28;20072;-76
2023/05/09 05:10:18;;;;;;;31.98;29.58;;;12.70;99.90;;;;;;5006246;28;20064;-76
2023/05/09 05:12:50;;;;;;;31.42;29.08;;;12.70;99.90;;;;;;5001107;28;20069;-76
2023/05/09 05:15:18;;;;;;;32.00;29.70;;;12.70;99.90;;;;;;4999479;28;20053;-76
2023/05/09 05:17:46;;;;;;;30.70;28.50;;;12.70;99.90;;;;;;5003511;28;20099;-77
2023/05/09 05:20:16;;;;;;;31.75;29.55;;;12.80;99.90;;;;;;4999615;28;20045;-77
2023/05/09 05:22:44;;;;;;;32.33;29.83;;;12.80;99.90;;;;;;4983968;28;20034;-75
2023/05/09 05:25:12;;;;;;;33.50;30.88;;;12.90;99.90;;;;;;4998067;28;20045;-77
2023/05/09 05:27:40;;;;;;;31.75;29.35;;;13.00;99.90;;;;;;5001335;28;20052;-78
2023/05/09 05:30:10;;;;;;;32.03;29.65;;;13.10;99.90;;;;;;4998223;28;20144;-76
2023/05/09 05:32:37;;;;;;;30.63;28.50;;;13.20;99.90;;;;;;5010648;28;20053;-78
2023/05/09 05:35:04;;;;;;;30.58;28.33;;;13.40;99.90;;;;;;5005787;28;20498;-75
2023/05/09 05:37:34;;;;;;;31.75;29.42;;;13.50;99.90;;;;;;5001816;28;20084;-76
2023/05/09 05:40:01;;;;;;;32.25;29.75;;;13.70;99.90;;;;;;5000591;28;20048;-77
2023/05/09 05:42:29;;;;;;;33.22;30.92;;;13.60;99.90;;;;;;5001079;28;20708;-76
2023/05/09 05:44:56;;;;;;;33.13;30.83;;;13.70;99.90;;;;;;5001748;28;21294;-76
2023/05/09 05:47:23;;;;;;;33.95;31.23;;;13.60;99.90;;;;;;4999678;28;20049;-77
2023/05/09 05:49:50;;;;;;;34.30;31.77;;;13.50;99.90;;;;;;5000411;28;20230;-77
2023/05/09 05:52:17;;;;;;;33.72;31.13;;;13.50;99.90;;;;;;4979766;28;20080;-76
2023/05/09 05:54:44;;;;;;;33.50;30.98;;;13.50;99.90;;;;;;5026122;28;20048;-76
2023/05/09 05:57:10;;;;;;;34.55;31.27;;;13.60;99.90;;;;;;5018096;28;20037;-77
2023/05/09 05:59:38;;;;;;;32.65;29.98;;;13.70;99.90;;;;;;5000342;28;21242;-76
2023/05/09 06:02:05;;;;;;;33.22;30.52;;;13.80;99.90;;;;;;4996189;28;20046;-77
2023/05/09 06:04:33;;;;;;;33.13;30.73;;;13.90;99.90;;;;;;5007567;28;20045;-77
2023/05/09 06:07:00;;;;;;;32.58;30.25;;;13.90;99.90;;;;;;4998215;28;20069;-76
2023/05/09 06:09:27;;;;;;;32.13;29.88;;;14.00;99.90;;;;;;4983464;28;20600;-76
2023/05/09 06:11:54;;;;;;;34.22;31.33;;;14.20;99.90;;;;;;4981354;28;20060;-76
2023/05/09 06:14:21;;;;;;;33.63;31.02;;;14.50;99.90;;;;;;4978362;28;20050;-76
2023/05/09 06:16:48;;;;;;;33.47;30.75;;;14.80;99.90;;;;;;4976555;28;20053;-76
2023/05/09 06:19:15;;;;;;;32.95;30.45;;;14.90;99.90;;;;;;4981091;28;20733;-77
2023/05/09 06:21:42;;;;;;;32.00;29.38;;;14.90;99.90;;;;;;4997847;28;20465;-77
2023/05/09 06:24:08;;;;;;;32.72;30.13;;;15.00;99.90;;;;;;4981461;28;20038;-77
2023/05/09 06:26:49;;;;;;;33.67;31.17;;;14.80;99.90;;;;;;5016135;28;20562;-76
2023/05/09 06:29:16;;;;;;;34.35;31.58;;;14.70;99.90;;;;;;5000538;28;20041;-77
2023/05/09 06:31:43;;;;;;;34.50;31.88;;;14.80;99.90;;;;;;4999086;28;20034;-76
2023/05/09 06:34:09;;;;;;;32.67;30.25;;;14.70;99.90;;;;;;5001675;28;20506;-76
2023/05/09 06:36:36;;;;;;;33.80;31.08;;;14.90;99.90;;;;;;4996233;28;20037;-75
2023/05/09 06:39:03;;;;;;;33.17;30.77;;;15.10;99.90;;;;;;5000006;28;20052;-76
2023/05/09 06:41:29;;;;;;;31.92;29.63;;;15.50;99.90;;;;;;4984512;28;20052;-77
2023/05/09 06:43:56;;;;;;;35.92;33.17;;;15.90;99.90;;;;;;4997326;28;20042;-76
2023/05/09 06:46:23;;;;;;;34.65;32.20;;;16.20;99.90;;;;;;4978732;28;20072;-76
2023/05/09 06:48:49;;;;;;;34.88;32.55;;;16.50;99.90;;;;;;4963781;28;20047;-75
2023/05/09 06:51:16;;;;;;;37.33;34.72;;;16.40;99.90;;;;;;4979110;28;20133;-76
2023/05/09 06:53:43;;;;;;;36.42;33.83;;;16.20;99.90;;;;;;4991588;28;20049;-76
2023/05/09 06:56:10;;;;;;;36.17;33.60;;;16.30;99.90;;;;;;4988712;28;20128;-75
2023/05/09 06:58:37;;;;;;;36.03;33.53;;;16.30;99.90;;;;;;4999205;28;20053;-76
2023/05/09 07:01:03;;;;;;;35.80;33.20;;;16.10;99.90;;;;;;4998693;28;20045;-77
2023/05/09 07:03:30;;;;;;;35.42;32.72;;;16.20;99.90;;;;;;4987463;28;20045;-77
2023/05/09 07:05:58;;;;;;;37.67;34.97;;;16.50;99.90;;;;;;4982709;28;20132;-76
2023/05/09 07:08:25;;;;;;;37.22;34.55;;;16.50;99.90;;;;;;5036642;28;20132;-75
2023/05/09 07:10:52;;;;;;;39.67;36.58;;;16.60;99.90;;;;;;4996738;28;20045;-75
2023/05/09 07:13:19;;;;;;;36.85;34.15;;;16.80;99.90;;;;;;5000663;28;20061;-75
2023/05/09 07:15:46;;;;;;;36.65;33.95;;;16.70;99.90;;;;;;4998840;28;20052;-76
2023/05/09 07:18:13;;;;;;;37.85;35.05;;;16.60;99.90;;;;;;5001177;28;20081;-76
2023/05/09 07:20:40;;;;;;;39.40;36.50;;;16.70;99.90;;;;;;5026431;28;20033;-75
2023/05/09 07:23:07;;;;;;;35.08;32.30;;;16.50;99.90;;;;;;5001641;28;20057;-75
2023/05/09 07:25:33;;;;;;;35.35;32.55;;;16.40;99.90;;;;;;4998636;28;20128;-76
2023/05/09 07:28:00;;;;;;;35.28;32.67;;;16.40;99.90;;;;;;4986374;28;20037;-75
2023/05/09 07:30:27;;;;;;;36.38;33.53;;;16.40;99.90;;;;;;4999855;28;20161;-76
2023/05/09 07:32:53;;;;;;;38.10;35.10;;;16.20;99.90;;;;;;5019520;28;20029;-76
2023/05/09 07:35:20;;;;;;;37.67;34.72;;;16.20;99.90;;;;;;5019215;28;20042;-75
2023/05/09 07:37:47;;;;;;;40.28;37.20;;;16.10;99.90;;;;;;5000921;28;20436;-76
2023/05/09 07:40:14;;;;;;;39.63;36.70;;;16.10;99.90;;;;;;5004090;28;20041;-76
2023/05/09 07:42:45;;;;;;;40.63;37.72;;;16.20;99.90;;;;;;5019865;28;20407;-76
2023/05/09 07:45:11;;;;;;;39.40;36.50;;;16.40;99.90;;;;;;5003145;28;20068;-76
2023/05/09 07:47:38;;;;;;;39.40;36.28;;;16.70;99.90;;;;;;5004102;28;20529;-76
2023/05/09 07:50:05;;;;;;;36.95;34.05;;;17.00;99.90;;;;;;5004320;28;20049;-77
2023/05/09 07:52:32;;;;;;;37.42;34.13;;;17.10;99.90;;;;;;5022857;28;20044;-75
2023/05/09 07:54:59;;;;;;;38.67;35.88;;;17.20;99.90;;;;;;5003051;28;20069;-77
2023/05/09 07:57:26;;;;;;;38.90;36.03;;;17.20;99.90;;;;;;5033778;28;20041;-78
2023/05/09 07:59:53;;;;;;;40.42;37.38;;;17.20;99.90;;;;;;5018402;28;20077;-76
2023/05/09 08:02:19;;;;;;;39.75;36.55;;;17.10;99.90;;;;;;4998386;28;20057;-76
2023/05/09 08:04:47;;;;;;;40.35;37.25;;;17.20;99.90;;;;;;5021954;28;20195;-76
2023/05/09 08:07:14;;;;;;;39.65;36.60;;;17.10;99.90;;;;;;5004384;28;20053;-76
2023/05/09 08:09:41;;;;;;;40.38;37.03;;;17.30;99.90;;;;;;5000240;28;20520;-76
2023/05/09 08:12:08;;;;;;;43.42;40.03;;;17.40;99.90;;;;;;5002626;28;20038;-76
2023/05/09 08:14:34;;;;;;;42.13;38.63;;;17.40;99.90;;;;;;5005133;28;20046;-76
2023/05/09 08:17:01;;;;;;;43.65;40.15;;;17.50;99.90;;;;;;5001409;28;20038;-76
2023/05/09 08:19:27;;;;;;;46.47;42.88;;;17.50;99.90;;;;;;4989206;28;20388;-76
2023/05/09 08:21:54;;;;;;;46.00;42.10;;;17.40;99.90;;;;;;5001174;28;20183;-76
2023/05/09 08:24:21;;;;;;;47.33;43.53;;;17.20;99.90;;;;;;5006190;28;20042;-76
2023/05/09 08:26:48;;;;;;;46.17;42.38;;;17.00;99.90;;;;;;5002000;28;20065;-76
2023/05/09 08:29:16;;;;;;;43.60;40.13;;;16.90;99.90;;;;;;5021030;28;20045;-75
2023/05/09 08:31:43;;;;;;;41.33;37.97;;;16.70;99.90;;;;;;4999906;28;20444;-76
2023/05/09 08:34:10;;;;;;;44.38;39.83;;;16.60;99.90;;;;;;5003373;28;20412;-76
2023/05/09 08:36:36;;;;;;;42.92;39.20;;;16.60;99.90;;;;;;4993076;28;20133;-75
2023/05/09 08:39:03;;;;;;;42.72;39.22;;;16.70;99.90;;;;;;4981890;28;20133;-76
2023/05/09 08:41:34;;;;;;;41.33;38.17;;;16.70;99.90;;;;;;4997568;28;20052;-77
2023/05/09 08:44:02;;;;;;;39.75;36.80;;;16.70;99.90;;;;;;5002178;28;20144;-75
2023/05/09 08:46:35;;;;;;;40.03;36.78;;;16.80;99.90;;;;;;5002109;28;20038;-75
2023/05/09 08:49:06;;;;;;;38.90;35.90;;;16.90;99.90;;;;;;5017511;28;20042;-77
2023/05/09 08:51:33;;;;;;;39.85;36.45;;;17.00;99.90;;;;;;4982666;28;20050;-76
2023/05/09 08:54:00;;;;;;;41.25;38.10;;;17.10;99.90;;;;;;5002619;28;20545;-79
2023/05/09 08:56:28;;;;;;;38.78;35.63;;;17.20;99.90;;;;;;4999561;28;20053;-79
2023/05/09 08:58:55;;;;;;;41.50;38.28;;;17.00;99.90;;;;;;5014285;28;20530;-76
2023/05/09 09:01:23;;;;;;;41.78;38.53;;;17.10;99.90;;;;;;5001635;28;20057;-77
2023/05/09 09:03:50;;;;;;;42.35;39.05;;;17.20;99.90;;;;;;5001362;28;20637;-77
2023/05/09 09:06:18;;;;;;;43.20;39.55;;;17.40;99.90;;;;;;5002340;28;20041;-76
2023/05/09 09:08:47;;;;;;;42.20;38.88;;;17.50;99.90;;;;;;5001125;28;20045;-77
2023/05/09 09:11:16;;;;;;;41.05;37.92;;;17.50;99.90;;;;;;5016183;28;20041;-77
2023/05/09 09:13:44;;;;;;;43.10;39.67;;;17.60;99.90;;;;;;5016351;28;20049;-77
2023/05/09 09:16:17;;;;;;;41.85;38.65;;;17.40;99.90;;;;;;5017643;28;20053;-75
2023/05/09 09:18:44;;;;;;;41.58;38.47;;;17.40;99.90;;;;;;5017391;28;21262;-76
2023/05/09 09:21:15;;;;;;;41.60;38.35;;;17.30;99.90;;;;;;4993762;28;20522;-77
2023/05/09 09:23:46;;;;;;;42.97;39.60;;;17.30;99.90;;;;;;5000748;28;20486;-78
2023/05/09 09:26:13;;;;;;;44.00;40.83;;;17.50;99.90;;;;;;5004024;28;20621;-76
2023/05/09 09:28:40;;;;;;;41.90;38.70;;;17.80;99.90;;;;;;5001196;28;20088;-74
2023/05/09 09:31:26;;;;;;;42.38;38.95;;;18.10;99.90;;;;;;5005767;28;21973;-78
2023/05/09 09:34:00;;;;;;;;;;;18.10;99.90;;;;;;5001048;28;20127;-75
2023/05/09 09:36:28;;;;;;;42.63;39.28;;;18.10;99.90;;;;;;4995235;28;19921;-75
2023/05/09 09:38:59;;;;;;;42.53;39.38;;;18.10;99.90;;;;;;4997579;28;20121;-75
2023/05/09 09:41:31;;;;;;;44.90;41.10;;;18.20;99.90;;;;;;4965804;28;20046;-75
2023/05/09 09:43:58;;;;;;;43.25;39.85;;;18.30;99.90;;;;;;4979769;28;20126;-76
2023/05/09 09:46:25;;;;;;;45.53;42.03;;;18.60;99.90;;;;;;4983150;28;20045;-75
2023/05/09 09:48:55;;;;;;;44.22;40.78;;;18.90;99.90;;;;;;4962394;28;20077;-77
2023/05/09 09:51:26;;;;;;;41.08;37.95;;;19.10;99.90;;;;;;4999835;28;20050;-76
2023/05/09 09:53:53;;;;;;;43.60;40.00;;;19.20;99.90;;;;;;4997685;28;20041;-76
2023/05/09 09:56:21;;;;;;;40.75;37.53;;;18.90;99.90;;;;;;4985134;28;20099;-77
2023/05/09 09:58:47;;;;;;;41.67;38.42;;;18.60;99.90;;;;;;4998182;28;20522;-75
2023/05/09 10:01:17;;;;;;;40.85;37.83;;;18.70;99.90;;;;;;4982562;28;20046;-74
2023/05/09 10:03:45;;;;;;;41.45;38.10;;;18.90;99.90;;;;;;4981120;28;20100;-75
2023/05/09 10:06:14;;;;;;;40.47;37.38;;;18.70;99.90;;;;;;4999869;28;20111;-76
2023/05/09 10:08:45;;;;;;;40.95;37.95;;;18.70;99.90;;;;;;4981710;28;20045;-74
2023/05/09 10:11:13;;;;;;;42.60;39.22;;;19.00;99.90;;;;;;4980046;28;20124;-76
2023/05/09 10:13:41;;;;;;;43.35;40.00;;;19.20;99.90;;;;;;4980139;28;20471;-75
2023/05/09 10:16:08;;;;;;;43.78;40.33;;;19.20;99.90;;;;;;4982830;28;20129;-74
2023/05/09 10:18:35;;;;;;;42.40;39.10;;;19.40;99.90;;;;;;4982858;28;20049;-74
2023/05/09 10:21:04;;;;;;;41.10;37.90;;;19.70;99.90;;;;;;4982192;28;20042;-75
2023/05/09 10:23:35;;;;;;;40.92;38.00;;;19.80;99.90;;;;;;4997651;28;20050;-74
2023/05/09 10:26:28;;;;;;;42.65;39.47;;;19.90;99.90;;;;;;4989176;28;20045;-77
2023/05/09 10:28:57;;;;;;;42.83;39.40;;;19.90;99.90;;;;;;4998800;28;20056;-75
2023/05/09 10:31:30;;;;;;;41.58;38.30;;;20.00;99.90;;;;;;5000943;28;20048;-76
2023/05/09 10:34:04;;;;;;;42.60;39.47;;;20.00;99.90;;;;;;5032501;28;20072;-74
2023/05/09 10:36:31;;;;;;;42.63;39.40;;;20.00;99.90;;;;;;5000611;28;20542;-76
2023/05/09 10:39:00;;;;;;;41.80;38.70;;;19.90;99.90;;;;;;5000735;28;20045;-74
2023/05/09 10:41:27;;;;;;;41.58;38.53;;;20.10;99.90;;;;;;4998644;28;20124;-74
2023/05/09 10:43:57;;;;;;;37.78;35.17;;;20.30;99.90;;;;;;5000962;28;20048;-74
2023/05/09 10:46:25;;;;;;;40.97;38.00;;;20.50;99.90;;;;;;5000866;28;20048;-73
2023/05/09 10:48:53;;;;;;;42.78;39.63;;;20.40;99.90;;;;;;4999049;28;20167;-76
2023/05/09 10:51:20;;;;;;;38.88;36.28;;;20.30;99.90;;;;;;4984683;28;20114;-75
2023/05/09 10:53:48;;;;;;;41.03;38.33;;;20.20;99.90;;;;;;4997081;28;20068;-76
2023/05/09 10:56:27;;;;;;;42.55;39.63;;;20.50;99.90;;;;;;5000068;28;20068;-76
2023/05/09 10:58:56;;;;;;;42.08;39.03;;;20.40;99.90;;;;;;4999474;28;20045;-75
2023/05/09 11:01:36;;;;;;;41.80;39.28;;;20.40;99.90;;;;;;4999173;28;20060;-77
2023/05/09 11:04:11;;;;;;;42.00;38.95;;;20.70;99.90;;;;;;5015235;28;20048;-78
2023/05/09 11:06:39;;;;;;;;;;;20.70;99.90;;;;;;4983253;28;20042;-76
2023/05/09 11:09:32;;;;;;;37.75;35.35;;;20.60;99.90;;;;;;5016830;28;19947;-75
2023/05/09 11:12:05;;;;;;;39.45;36.83;;;20.60;99.90;;;;;;5011839;28;20041;-74
2023/05/09 11:14:37;;;;;;;39.42;36.58;;;20.30;99.90;;;;;;5000061;28;20675;-76
2023/05/09 11:17:07;;;;;;;38.13;35.53;;;20.30;99.90;;;;;;4984114;28;20047;-76
2023/05/09 11:19:57;;;;;;;41.78;38.67;;;20.40;99.90;;;;;;4997589;28;20052;-79
2023/05/09 11:22:26;;;;;;;40.92;37.83;;;20.00;99.90;;;;;;5003066;28;20037;-75
2023/05/09 11:25:13;;;;;;;41.13;38.33;;;19.70;99.90;;;;;;4972862;28;20107;-77
2023/05/09 11:27:48;;;;;;;41.05;38.13;;;19.80;99.90;;;;;;5010446;28;20069;-77
2023/05/09 11:30:17;;;;;;;43.28;39.95;;;20.10;99.90;;;;;;4998143;28;20041;-78
2023/05/09 11:32:57;;;;;;;45.40;42.00;;;20.10;99.90;;;;;;4978431;28;20104;-75
2023/05/09 11:35:27;;;;;;;43.88;40.88;;;19.70;99.90;;;;;;4991006;28;20137;-76
2023/05/09 11:38:03;;;;;;;43.03;39.85;;;19.80;99.90;;;;;;4993695;28;20766;-77
2023/05/09 11:40:30;;;;;;;36.45;34.03;;;19.90;99.90;;;;;;4990971;28;20053;-75
2023/05/09 11:42:58;;;;;;;36.97;34.58;;;20.00;99.90;;;;;;4990923;28;20144;-75
2023/05/09 11:45:30;;;;;;;37.13;34.72;;;20.10;99.90;;;;;;4978734;28;20037;-75
2023/05/09 11:47:58;;;;;;;39.58;36.88;;;20.10;99.90;;;;;;4974019;28;20038;-75
2023/05/09 11:50:24;;;;;;;34.53;31.98;;;20.20;99.90;;;;;;4996121;28;20050;-76
2023/05/09 11:52:52;;;;;;;36.40;33.95;;;20.10;99.90;;;;;;4975228;28;20054;-75
2023/05/09 11:55:30;;;;;;;36.78;34.00;;;20.10;99.90;;;;;;4968311;28;20037;-75
2023/05/09 11:57:58;;;;;;;38.80;35.83;;;20.10;99.90;;;;;;4976922;28;20673;-75
2023/05/09 12:00:25;;;;;;;41.13;37.65;;;20.10;99.90;;;;;;4976043;28;20419;-75
2023/05/09 12:02:52;;;;;;;42.70;39.50;;;19.90;99.90;;;;;;4991624;28;21319;-75
2023/05/09 12:05:21;;;;;;;41.55;38.38;;;19.80;99.90;;;;;;4974021;28;20042;-75
2023/05/09 12:07:49;;;;;;;41.92;38.28;;;19.90;99.90;;;;;;4981628;28;20395;-75
2023/05/09 12:10:19;;;;;;;41.10;37.88;;;20.00;99.90;;;;;;4991676;28;20419;-75
2023/05/09 12:12:48;;;;;;;40.72;37.33;;;20.00;99.90;;;;;;4976957;28;21313;-77
2023/05/09 12:15:15;;;;;;;37.55;34.80;;;20.10;99.90;;;;;;4976872;28;20080;-77
2023/05/09 12:17:44;;;;;;;39.53;36.53;;;20.00;99.90;;;;;;4971389;28;20050;-77
2023/05/09 12:20:12;;;;;;;38.65;35.65;;;20.00;99.90;;;;;;4980350;28;20603;-76
2023/05/09 12:22:42;;;;;;;44.22;40.83;;;20.00;99.90;;;;;;4980363;28;20678;-78
2023/05/09 12:25:10;;;;;;;43.22;39.72;;;20.00;99.90;;;;;;4979810;28;20157;-76
2023/05/09 12:27:39;;;;;;;42.35;38.97;;;20.10;99.90;;;;;;5000900;28;20142;-77
2023/05/09 12:30:10;;;;;;;42.15;38.95;;;20.20;99.90;;;;;;5000986;28;20117;-75
2023/05/09 12:32:38;;;;;;;44.53;41.10;;;20.10;99.90;;;;;;5000688;28;20061;-75
2023/05/09 12:35:09;;;;;;;42.10;38.83;;;19.90;99.90;;;;;;4984328;28;20089;-75
2023/05/09 12:37:35;;;;;;;43.05;39.75;;;19.80;99.90;;;;;;5023774;28;20041;-77